createdAt,value
2022-07-30T00:00:02.244Z,25.58
2022-07-30T00:00:33.946Z,25.57
2022-07-30T00:01:05.508Z,25.56
2022-07-30T00:01:37.088Z,25.58
2022-07-30T00:02:08.741Z,25.58
2022-07-30T00:02:40.409Z,25.55
2022-07-30T00:03:11.962Z,25.56
2022-07-30T00:03:43.664Z,25.56
2022-07-30T00:04:15.225Z,25.55
2022-07-30T00:04:47.104Z,25.55
2022-07-30T00:05:18.711Z,25.55
2022-07-30T00:05:50.377Z,25.56
2022-07-30T00:06:21.870Z,25.58
2022-07-30T00:06:53.365Z,25.57
2022-07-30T00:07:24.890Z,25.57
2022-07-30T00:07:56.545Z,25.57
2022-07-30T00:08:28.102Z,25.56
2022-07-30T00:08:59.606Z,25.57
2022-07-30T00:09:34.230Z,25.56
2022-07-30T00:10:07.989Z,25.56
2022-07-30T00:10:39.592Z,25.55
2022-07-30T00:11:11.587Z,25.56
2022-07-30T00:11:43.098Z,25.55
2022-07-30T00:12:14.558Z,25.55
2022-07-30T00:12:46.085Z,25.55
2022-07-30T00:13:17.893Z,25.55
2022-07-30T00:13:49.493Z,25.54
2022-07-30T00:14:20.980Z,25.55
2022-07-30T00:14:52.606Z,25.55
2022-07-30T00:15:24.103Z,25.56
2022-07-30T00:15:55.756Z,25.55
2022-07-30T00:16:27.381Z,25.56
2022-07-30T00:16:59.457Z,25.53
2022-07-30T00:17:31.342Z,25.53
2022-07-30T00:18:03.578Z,25.53
2022-07-30T00:18:36.304Z,25.54
2022-07-30T00:19:08.640Z,25.54
2022-07-30T00:19:40.511Z,25.57
2022-07-30T00:20:12.111Z,25.55
2022-07-30T00:20:45.535Z,25.53
2022-07-30T00:21:20.440Z,25.54
2022-07-30T00:22:08.119Z,25.54
2022-07-30T00:22:39.741Z,25.54
2022-07-30T00:23:11.289Z,25.54
2022-07-30T00:23:42.874Z,25.54
2022-07-30T00:24:33.165Z,25.54
2022-07-30T00:25:05.380Z,25.57
2022-07-30T00:25:37.074Z,25.56
2022-07-30T00:26:08.627Z,25.55
2022-07-30T00:26:40.216Z,25.55
2022-07-30T00:27:11.765Z,25.54
2022-07-30T00:27:43.392Z,25.55
2022-07-30T00:28:14.955Z,25.54
2022-07-30T00:28:46.651Z,25.54
2022-07-30T00:29:18.220Z,25.54
2022-07-30T00:29:49.846Z,25.52
2022-07-30T00:30:21.413Z,25.52
2022-07-30T00:30:54.946Z,25.53
2022-07-30T00:31:28.021Z,25.53
2022-07-30T00:31:59.684Z,25.53
2022-07-30T00:32:31.410Z,25.55
2022-07-30T00:33:03.091Z,25.53
2022-07-30T00:33:34.767Z,25.54
2022-07-30T00:34:06.431Z,25.52
2022-07-30T00:34:38.007Z,25.53
2022-07-30T00:35:12.743Z,25.53
2022-07-30T00:35:44.306Z,25.53
2022-07-30T00:36:15.847Z,25.54
2022-07-30T00:36:47.345Z,25.54
2022-07-30T00:37:18.928Z,25.55
2022-07-30T00:37:50.454Z,25.54
2022-07-30T00:38:22.032Z,25.53
2022-07-30T00:38:53.573Z,25.54
2022-07-30T00:39:26.166Z,25.53
2022-07-30T00:39:57.790Z,25.54
2022-07-30T00:40:29.339Z,25.52
2022-07-30T00:41:00.891Z,25.52
2022-07-30T00:41:32.469Z,25.52
2022-07-30T00:42:04.119Z,25.54
2022-07-30T00:42:42.546Z,25.54
2022-07-30T00:43:14.763Z,25.54
2022-07-30T00:43:46.443Z,25.54
2022-07-30T00:44:18.053Z,25.53
2022-07-30T00:44:49.562Z,25.51
2022-07-30T00:45:21.180Z,25.51
2022-07-30T00:45:52.778Z,25.50
2022-07-30T00:46:24.373Z,25.50
2022-07-30T00:46:56.030Z,25.51
2022-07-30T00:47:27.584Z,25.51
2022-07-30T00:47:59.153Z,25.51
2022-07-30T00:48:30.680Z,25.52
2022-07-30T00:49:02.319Z,25.52
2022-07-30T00:49:33.827Z,25.52
2022-07-30T00:50:05.740Z,25.53
2022-07-30T00:50:37.465Z,25.52
2022-07-30T00:51:09.067Z,25.52
2022-07-30T00:51:40.541Z,25.51
2022-07-30T00:52:12.445Z,25.52
2022-07-30T00:52:44.016Z,25.53
2022-07-30T00:53:15.643Z,25.52
2022-07-30T00:53:47.163Z,25.52
2022-07-30T00:54:19.409Z,25.52
2022-07-30T00:54:50.944Z,25.51
2022-07-30T00:55:22.676Z,25.51
2022-07-30T00:55:54.220Z,25.52
2022-07-30T00:56:25.832Z,25.50
2022-07-30T00:56:57.503Z,25.51
2022-07-30T00:57:29.096Z,25.51
2022-07-30T00:58:00.631Z,25.51
2022-07-30T00:58:33.747Z,25.52
2022-07-30T00:59:05.464Z,25.50
2022-07-30T00:59:37.057Z,25.49
2022-07-30T01:00:10.201Z,25.49
2022-07-30T01:00:41.972Z,25.48
2022-07-30T01:01:13.594Z,25.49
2022-07-30T01:01:45.172Z,25.50
2022-07-30T01:02:16.799Z,25.51
2022-07-30T01:02:48.316Z,25.51
2022-07-30T01:03:19.862Z,25.50
2022-07-30T01:03:51.443Z,25.49
2022-07-30T01:04:22.982Z,25.49
2022-07-30T01:04:54.424Z,25.50
2022-07-30T01:05:26.112Z,25.49
2022-07-30T01:05:57.659Z,25.48
2022-07-30T01:06:29.143Z,25.48
2022-07-30T01:07:00.891Z,25.49
2022-07-30T01:07:32.793Z,25.48
2022-07-30T01:08:04.541Z,25.50
2022-07-30T01:08:36.109Z,25.50
2022-07-30T01:09:07.875Z,25.48
2022-07-30T01:09:39.347Z,25.50
2022-07-30T01:10:43.458Z,25.49
2022-07-30T01:11:14.911Z,25.50
2022-07-30T01:11:46.357Z,25.50
2022-07-30T01:12:19.783Z,25.50
2022-07-30T01:12:51.159Z,25.50
2022-07-30T01:13:22.651Z,25.50
2022-07-30T01:13:54.015Z,25.51
2022-07-30T01:14:25.357Z,25.50
2022-07-30T01:14:56.950Z,25.50
2022-07-30T01:15:28.270Z,25.50
2022-07-30T01:15:59.598Z,25.50
2022-07-30T01:16:30.967Z,25.49
2022-07-30T01:17:02.789Z,25.50
2022-07-30T01:17:34.908Z,25.49
2022-07-30T01:18:06.762Z,25.50
2022-07-30T01:18:38.125Z,25.50
2022-07-30T01:19:18.787Z,25.50
2022-07-30T01:19:50.255Z,25.49
2022-07-30T01:20:26.744Z,25.50
2022-07-30T01:21:00.945Z,25.49
2022-07-30T01:21:32.905Z,25.48
2022-07-30T01:22:10.280Z,25.49
2022-07-30T01:22:52.153Z,25.48
2022-07-30T01:23:25.228Z,25.49
2022-07-30T01:23:56.643Z,25.49
2022-07-30T01:24:34.036Z,25.49
2022-07-30T01:25:09.962Z,25.48
2022-07-30T01:25:41.299Z,25.48
2022-07-30T01:26:14.437Z,25.47
2022-07-30T01:26:45.779Z,25.47
2022-07-30T01:27:19.844Z,25.46
2022-07-30T01:27:57.591Z,25.45
2022-07-30T01:28:30.223Z,25.46
2022-07-30T01:29:01.567Z,25.46
2022-07-30T01:29:32.962Z,25.46
2022-07-30T01:30:04.864Z,25.47
2022-07-30T01:30:41.663Z,25.46
2022-07-30T01:31:13.149Z,25.47
2022-07-30T01:31:44.612Z,25.46
2022-07-30T01:32:16.004Z,25.46
2022-07-30T01:32:48.993Z,25.46
2022-07-30T01:33:20.612Z,25.46
2022-07-30T01:33:52.109Z,25.46
2022-07-30T01:34:23.538Z,25.47
2022-07-30T01:34:55.497Z,25.48
2022-07-30T01:35:27.466Z,25.48
2022-07-30T01:35:58.967Z,25.48
2022-07-30T01:36:30.306Z,25.47
2022-07-30T01:37:02.512Z,25.48
2022-07-30T01:37:34.116Z,25.47
2022-07-30T01:38:05.485Z,25.48
2022-07-30T01:38:36.833Z,25.48
2022-07-30T01:39:08.457Z,25.48
2022-07-30T01:39:39.886Z,25.48
2022-07-30T01:40:11.477Z,25.47
2022-07-30T01:40:42.976Z,25.47
2022-07-30T01:41:14.355Z,25.47
2022-07-30T01:41:46.146Z,25.46
2022-07-30T01:42:17.522Z,25.46
2022-07-30T01:42:49.680Z,25.46
2022-07-30T01:43:21.294Z,25.45
2022-07-30T01:43:52.594Z,25.45
2022-07-30T01:44:24.224Z,25.45
2022-07-30T01:44:55.986Z,25.44
2022-07-30T01:45:28.623Z,25.44
2022-07-30T01:46:00.056Z,25.46
2022-07-30T01:46:31.655Z,25.46
2022-07-30T01:47:03.503Z,25.46
2022-07-30T01:47:35.382Z,25.46
2022-07-30T01:48:06.716Z,25.47
2022-07-30T01:48:38.818Z,25.46
2022-07-30T01:49:10.359Z,25.47
2022-07-30T01:49:41.750Z,25.47
2022-07-30T01:50:13.593Z,25.47
2022-07-30T01:50:45.326Z,25.46
2022-07-30T01:51:16.788Z,25.46
2022-07-30T01:51:48.126Z,25.46
2022-07-30T01:52:19.504Z,25.44
2022-07-30T01:52:51.492Z,25.46
2022-07-30T01:53:24.160Z,25.44
2022-07-30T01:53:55.464Z,25.46
2022-07-30T01:54:27.487Z,25.43
2022-07-30T01:54:58.828Z,25.43
2022-07-30T01:55:30.921Z,25.44
2022-07-30T01:56:02.304Z,25.44
2022-07-30T01:56:34.803Z,25.45
2022-07-30T01:57:06.802Z,25.44
2022-07-30T01:57:38.132Z,25.44
2022-07-30T01:58:10.037Z,25.43
2022-07-30T01:58:41.373Z,25.44
2022-07-30T01:59:12.726Z,25.44
2022-07-30T01:59:44.325Z,25.44
2022-07-30T02:00:15.756Z,25.44
2022-07-30T02:00:47.423Z,25.45
2022-07-30T02:01:18.909Z,25.44
2022-07-30T02:01:50.323Z,25.44
2022-07-30T02:02:21.651Z,25.45
2022-07-30T02:02:52.957Z,25.44
2022-07-30T02:03:24.979Z,25.45
2022-07-30T02:03:58.183Z,25.45
2022-07-30T02:04:29.696Z,25.44
2022-07-30T02:05:01.069Z,25.44
2022-07-30T02:05:32.561Z,25.44
2022-07-30T02:06:08.130Z,25.45
2022-07-30T02:06:41.693Z,25.46
2022-07-30T02:07:14.685Z,25.47
2022-07-30T02:07:47.440Z,25.46
2022-07-30T02:08:20.506Z,25.46
2022-07-30T02:08:55.233Z,25.46
2022-07-30T02:09:28.703Z,25.45
2022-07-30T02:10:02.020Z,25.44
2022-07-30T02:10:45.861Z,25.46
2022-07-30T02:11:17.324Z,25.44
2022-07-30T02:11:48.688Z,25.45
2022-07-30T02:12:20.421Z,25.45
2022-07-30T02:12:52.408Z,25.44
2022-07-30T02:13:26.068Z,25.44
2022-07-30T02:13:57.446Z,25.44
2022-07-30T02:14:29.893Z,25.44
2022-07-30T02:15:22.860Z,25.44
2022-07-30T02:15:58.215Z,25.45
2022-07-30T02:16:31.059Z,25.45
2022-07-30T02:17:02.951Z,25.45
2022-07-30T02:17:39.810Z,25.43
2022-07-30T02:18:19.056Z,25.44
2022-07-30T02:19:02.007Z,25.45
2022-07-30T02:19:41.599Z,25.44
2022-07-30T02:20:13.537Z,25.44
2022-07-30T02:20:45.976Z,25.42
2022-07-30T02:21:20.906Z,25.43
2022-07-30T02:21:53.192Z,25.45
2022-07-30T02:22:25.158Z,25.46
2022-07-30T02:22:58.215Z,25.47
2022-07-30T02:23:29.568Z,25.45
2022-07-30T02:24:00.918Z,25.47
2022-07-30T02:24:32.257Z,25.46
2022-07-30T02:25:03.744Z,25.44
2022-07-30T02:25:35.381Z,25.43
2022-07-30T02:26:06.874Z,25.43
2022-07-30T02:26:38.211Z,25.42
2022-07-30T02:27:12.899Z,25.43
2022-07-30T02:27:44.489Z,25.42
2022-07-30T02:28:15.863Z,25.43
2022-07-30T02:28:48.068Z,25.42
2022-07-30T02:29:19.437Z,25.42
2022-07-30T02:29:50.774Z,25.43
2022-07-30T02:30:23.201Z,25.42
2022-07-30T02:30:55.373Z,25.42
2022-07-30T02:31:27.266Z,25.42
2022-07-30T02:31:58.668Z,25.44
2022-07-30T02:32:30.992Z,25.42
2022-07-30T02:33:03.285Z,25.42
2022-07-30T02:33:36.420Z,25.40
2022-07-30T02:34:15.045Z,25.40
2022-07-30T02:34:46.588Z,25.41
2022-07-30T02:35:18.826Z,25.40
2022-07-30T02:35:50.309Z,25.39
2022-07-30T02:36:21.633Z,25.42
2022-07-30T02:36:52.980Z,25.45
2022-07-30T02:37:43.022Z,25.44
2022-07-30T02:38:15.689Z,25.43
2022-07-30T02:38:47.104Z,25.43
2022-07-30T02:39:18.488Z,25.40
2022-07-30T02:39:50.602Z,25.42
2022-07-30T02:40:21.996Z,25.40
2022-07-30T02:40:54.236Z,25.41
2022-07-30T02:41:26.662Z,25.39
2022-07-30T02:41:57.983Z,25.39
2022-07-30T02:42:29.329Z,25.40
2022-07-30T02:43:00.681Z,25.39
2022-07-30T02:43:36.168Z,25.39
2022-07-30T02:44:07.674Z,25.39
2022-07-30T02:44:39.063Z,25.40
2022-07-30T02:45:10.493Z,25.40
2022-07-30T02:45:42.154Z,25.42
2022-07-30T02:46:13.556Z,25.40
2022-07-30T02:46:44.984Z,25.40
2022-07-30T02:47:16.316Z,25.40
2022-07-30T02:47:48.746Z,25.40
2022-07-30T02:48:34.394Z,25.39
2022-07-30T02:49:06.921Z,25.40
2022-07-30T02:49:38.250Z,25.38
2022-07-30T02:50:09.665Z,25.39
2022-07-30T02:50:41.012Z,25.38
2022-07-30T02:51:12.359Z,25.38
2022-07-30T02:51:44.060Z,25.38
2022-07-30T02:52:15.409Z,25.37
2022-07-30T02:52:46.722Z,25.36
2022-07-30T02:53:18.023Z,25.36
2022-07-30T02:53:51.846Z,25.38
2022-07-30T02:54:23.363Z,25.37
2022-07-30T02:54:54.702Z,25.39
2022-07-30T02:55:26.571Z,25.39
2022-07-30T02:55:57.918Z,25.40
2022-07-30T02:56:29.280Z,25.39
2022-07-30T02:57:00.901Z,25.37
2022-07-30T02:57:32.466Z,25.39
2022-07-30T02:58:04.162Z,25.37
2022-07-30T02:58:35.474Z,25.38
2022-07-30T02:59:06.860Z,25.39
2022-07-30T02:59:38.549Z,25.39
2022-07-30T03:00:10.232Z,25.40
2022-07-30T03:00:41.606Z,25.40
2022-07-30T03:01:13.725Z,25.42
2022-07-30T03:01:45.198Z,25.39
2022-07-30T03:02:16.613Z,25.39
2022-07-30T03:02:48.096Z,25.39
2022-07-30T03:03:20.504Z,25.39
2022-07-30T03:03:51.801Z,25.40
2022-07-30T03:04:23.133Z,25.39
2022-07-30T03:04:54.686Z,25.40
2022-07-30T03:05:26.123Z,25.39
2022-07-30T03:05:57.506Z,25.38
2022-07-30T03:06:28.912Z,25.38
2022-07-30T03:07:03.672Z,25.38
2022-07-30T03:07:37.679Z,25.37
2022-07-30T03:08:09.017Z,25.36
2022-07-30T03:08:40.678Z,25.37
2022-07-30T03:09:12.033Z,25.37
2022-07-30T03:09:50.877Z,25.37
2022-07-30T03:10:24.489Z,25.35
2022-07-30T03:10:55.909Z,25.33
2022-07-30T03:11:27.287Z,25.36
2022-07-30T03:11:58.644Z,25.35
2022-07-30T03:12:30.070Z,25.35
2022-07-30T03:13:01.750Z,25.35
2022-07-30T03:13:33.104Z,25.35
2022-07-30T03:14:04.448Z,25.35
2022-07-30T03:14:35.782Z,25.36
2022-07-30T03:15:07.298Z,25.36
2022-07-30T03:15:40.735Z,25.38
2022-07-30T03:16:12.107Z,25.36
2022-07-30T03:16:44.149Z,25.36
2022-07-30T03:17:15.780Z,25.36
2022-07-30T03:17:49.034Z,25.37
2022-07-30T03:18:20.399Z,25.37
2022-07-30T03:18:51.765Z,25.35
2022-07-30T03:19:23.273Z,25.36
2022-07-30T03:19:54.878Z,25.37
2022-07-30T03:20:27.254Z,25.39
2022-07-30T03:20:58.615Z,25.36
2022-07-30T03:21:29.925Z,25.36
2022-07-30T03:22:01.442Z,25.35
2022-07-30T03:22:33.330Z,25.35
2022-07-30T03:23:04.727Z,25.32
2022-07-30T03:23:36.206Z,25.31
2022-07-30T03:24:07.659Z,25.32
2022-07-30T03:24:39.003Z,25.34
2022-07-30T03:25:15.327Z,25.32
2022-07-30T03:25:52.247Z,25.30
2022-07-30T03:26:25.921Z,25.32
2022-07-30T03:26:57.485Z,25.31
2022-07-30T03:27:28.941Z,25.30
2022-07-30T03:28:00.866Z,25.30
2022-07-30T03:28:32.764Z,25.31
2022-07-30T03:29:04.104Z,25.32
2022-07-30T03:29:35.433Z,25.33
2022-07-30T03:30:07.076Z,25.35
2022-07-30T03:30:38.411Z,25.35
2022-07-30T03:31:09.822Z,25.36
2022-07-30T03:31:41.255Z,25.35
2022-07-30T03:32:13.831Z,25.35
2022-07-30T03:32:46.302Z,25.33
2022-07-30T03:33:17.732Z,25.33
2022-07-30T03:33:49.273Z,25.33
2022-07-30T03:34:20.613Z,25.33
2022-07-30T03:34:52.179Z,25.32
2022-07-30T03:35:23.562Z,25.32
2022-07-30T03:35:55.164Z,25.31
2022-07-30T03:36:26.494Z,25.31
2022-07-30T03:36:58.125Z,25.31
2022-07-30T03:37:29.656Z,25.32
2022-07-30T03:38:00.979Z,25.31
2022-07-30T03:38:32.363Z,25.33
2022-07-30T03:39:04.167Z,25.32
2022-07-30T03:39:35.507Z,25.32
2022-07-30T03:40:06.901Z,25.31
2022-07-30T03:40:38.256Z,25.31
2022-07-30T03:41:09.928Z,25.31
2022-07-30T03:41:41.271Z,25.31
2022-07-30T03:42:12.617Z,25.31
2022-07-30T03:42:43.912Z,25.29
2022-07-30T03:43:18.311Z,25.30
2022-07-30T03:44:05.184Z,25.31
2022-07-30T03:44:36.564Z,25.30
2022-07-30T03:45:08.099Z,25.32
2022-07-30T03:45:40.055Z,25.33
2022-07-30T03:46:11.471Z,25.35
2022-07-30T03:46:42.927Z,25.33
2022-07-30T03:47:14.239Z,25.31
2022-07-30T03:47:45.664Z,25.33
2022-07-30T03:48:17.030Z,25.33
2022-07-30T03:48:48.378Z,25.34
2022-07-30T03:49:20.312Z,25.35
2022-07-30T03:49:51.745Z,25.32
2022-07-30T03:50:23.119Z,25.35
2022-07-30T03:50:54.443Z,25.34
2022-07-30T03:51:25.794Z,25.32
2022-07-30T03:52:04.499Z,25.32
2022-07-30T03:52:40.954Z,25.32
2022-07-30T03:53:12.671Z,25.30
2022-07-30T03:53:44.014Z,25.31
2022-07-30T03:54:15.392Z,25.30
2022-07-30T03:54:48.133Z,25.29
2022-07-30T03:55:19.500Z,25.28
2022-07-30T03:55:51.427Z,25.30
2022-07-30T03:56:22.745Z,25.28
2022-07-30T03:56:54.074Z,25.27
2022-07-30T03:57:25.471Z,25.29
2022-07-30T03:57:56.865Z,25.27
2022-07-30T03:58:28.195Z,25.26
2022-07-30T03:59:07.141Z,25.27
2022-07-30T03:59:38.440Z,25.28
2022-07-30T04:00:13.000Z,25.30
2022-07-30T04:00:46.906Z,25.33
2022-07-30T04:01:18.259Z,25.33
2022-07-30T04:01:49.670Z,25.33
2022-07-30T04:02:21.081Z,25.32
2022-07-30T04:02:52.467Z,25.33
2022-07-30T04:03:24.565Z,25.31
2022-07-30T04:03:55.965Z,25.32
2022-07-30T04:04:27.366Z,25.31
2022-07-30T04:04:58.736Z,25.31
2022-07-30T04:05:41.120Z,25.31
2022-07-30T04:06:13.136Z,25.32
2022-07-30T04:06:44.462Z,25.30
2022-07-30T04:07:19.080Z,25.31
2022-07-30T04:07:50.429Z,25.32
2022-07-30T04:08:22.061Z,25.31
2022-07-30T04:08:53.393Z,25.30
2022-07-30T04:09:24.773Z,25.32
2022-07-30T04:09:56.255Z,25.31
2022-07-30T04:10:27.630Z,25.31
2022-07-30T04:10:59.029Z,25.31
2022-07-30T04:11:40.458Z,25.31
2022-07-30T04:12:12.459Z,25.29
2022-07-30T04:12:43.832Z,25.30
2022-07-30T04:13:15.173Z,25.29
2022-07-30T04:13:46.522Z,25.28
2022-07-30T04:14:17.877Z,25.29
2022-07-30T04:14:49.268Z,25.30
2022-07-30T04:16:37.229Z,25.30
2022-07-30T04:16:39.518Z,25.32
2022-07-30T04:17:18.183Z,25.32
2022-07-30T04:17:50.136Z,25.31
2022-07-30T04:18:21.487Z,25.31
2022-07-30T04:18:53.525Z,25.30
2022-07-30T04:19:28.815Z,25.27
2022-07-30T04:20:01.619Z,25.27
2022-07-30T04:20:34.843Z,25.27
2022-07-30T04:21:06.988Z,25.26
2022-07-30T04:21:47.790Z,25.26
2022-07-30T04:22:20.660Z,25.25
2022-07-30T04:22:52.073Z,25.25
2022-07-30T04:23:23.514Z,25.25
2022-07-30T04:24:02.114Z,25.24
2022-07-30T04:24:35.554Z,25.25
2022-07-30T04:25:06.945Z,25.23
2022-07-30T04:25:38.880Z,25.24
2022-07-30T04:26:10.219Z,25.25
2022-07-30T04:26:41.575Z,25.25
2022-07-30T04:27:12.899Z,25.26
2022-07-30T04:28:03.231Z,25.26
2022-07-30T04:28:35.381Z,25.28
2022-07-30T04:29:07.622Z,25.27
2022-07-30T04:29:38.933Z,25.29
2022-07-30T04:30:10.461Z,25.30
2022-07-30T04:30:41.795Z,25.30
2022-07-30T04:31:13.269Z,25.31
2022-07-30T04:31:44.762Z,25.31
2022-07-30T04:32:16.164Z,25.29
2022-07-30T04:32:47.521Z,25.30
2022-07-30T04:33:20.462Z,25.30
2022-07-30T04:33:51.774Z,25.31
2022-07-30T04:34:23.307Z,25.31
2022-07-30T04:34:55.069Z,25.31
2022-07-30T04:35:51.557Z,25.31
2022-07-30T04:36:20.167Z,25.31
2022-07-30T04:36:51.562Z,25.29
2022-07-30T04:37:23.627Z,25.29
2022-07-30T04:37:54.977Z,25.27
2022-07-30T04:38:26.313Z,25.29
2022-07-30T04:38:57.977Z,25.27
2022-07-30T04:39:29.342Z,25.26
2022-07-30T04:40:00.699Z,25.26
2022-07-30T04:40:32.010Z,25.25
2022-07-30T04:41:03.359Z,25.24
2022-07-30T04:41:49.390Z,25.24
2022-07-30T04:42:21.766Z,25.23
2022-07-30T04:42:53.088Z,25.24
2022-07-30T04:43:24.419Z,25.24
2022-07-30T04:43:55.789Z,25.24
2022-07-30T04:44:27.147Z,25.25
2022-07-30T04:44:58.507Z,25.26
2022-07-30T04:45:29.866Z,25.26
2022-07-30T04:46:01.217Z,25.28
2022-07-30T04:46:32.541Z,25.29
2022-07-30T04:47:04.031Z,25.30
2022-07-30T04:47:35.418Z,25.29
2022-07-30T04:48:06.796Z,25.29
2022-07-30T04:48:38.210Z,25.27
2022-07-30T04:49:09.814Z,25.28
2022-07-30T04:49:41.173Z,25.27
2022-07-30T04:50:12.509Z,25.28
2022-07-30T04:50:44.916Z,25.26
2022-07-30T04:51:42.339Z,25.27
2022-07-30T04:52:13.797Z,25.28
2022-07-30T04:52:45.209Z,25.27
2022-07-30T04:53:16.568Z,25.27
2022-07-30T04:53:47.904Z,25.26
2022-07-30T04:54:19.265Z,25.26
2022-07-30T04:54:54.420Z,25.26
2022-07-30T04:55:25.735Z,25.25
2022-07-30T04:55:57.073Z,25.24
2022-07-30T04:56:28.414Z,25.22
2022-07-30T04:56:59.773Z,25.23
2022-07-30T04:57:31.258Z,25.24
2022-07-30T04:58:02.625Z,25.24
2022-07-30T04:58:34.067Z,25.22
2022-07-30T04:59:05.384Z,25.24
2022-07-30T04:59:36.884Z,25.24
2022-07-30T05:00:08.764Z,25.25
2022-07-30T05:00:41.321Z,25.27
2022-07-30T05:01:14.648Z,25.27
2022-07-30T05:01:46.830Z,25.27
2022-07-30T05:02:18.871Z,25.26
2022-07-30T05:02:50.252Z,25.26
2022-07-30T05:03:21.590Z,25.26
2022-07-30T05:03:53.021Z,25.25
2022-07-30T05:04:25.799Z,25.24
2022-07-30T05:04:57.494Z,25.25
2022-07-30T05:05:30.830Z,25.25
2022-07-30T05:06:02.163Z,25.26
2022-07-30T05:06:33.508Z,25.26
2022-07-30T05:07:05.289Z,25.26
2022-07-30T05:07:37.597Z,25.26
2022-07-30T05:08:09.038Z,25.25
2022-07-30T05:08:40.425Z,25.25
2022-07-30T05:09:11.767Z,25.24
2022-07-30T05:09:43.127Z,25.21
2022-07-30T05:10:15.014Z,25.21
2022-07-30T05:10:46.357Z,25.21
2022-07-30T05:11:17.684Z,25.22
2022-07-30T05:11:52.546Z,25.21
2022-07-30T05:12:44.134Z,25.22
2022-07-30T05:13:15.440Z,25.23
2022-07-30T05:13:47.918Z,25.23
2022-07-30T05:14:19.800Z,25.22
2022-07-30T05:14:51.164Z,25.24
2022-07-30T05:15:22.657Z,25.26
2022-07-30T05:16:07.732Z,25.26
2022-07-30T05:16:39.094Z,25.26
2022-07-30T05:17:10.445Z,25.26
2022-07-30T05:17:41.814Z,25.27
2022-07-30T05:18:13.188Z,25.26
2022-07-30T05:18:44.518Z,25.27
2022-07-30T05:19:16.043Z,25.26
2022-07-30T05:19:47.366Z,25.26
2022-07-30T05:20:19.733Z,25.25
2022-07-30T05:20:51.061Z,25.24
2022-07-30T05:21:22.456Z,25.25
2022-07-30T05:21:53.798Z,25.27
2022-07-30T05:22:25.145Z,25.26
2022-07-30T05:22:56.490Z,25.25
2022-07-30T05:23:27.828Z,25.24
2022-07-30T05:23:59.174Z,25.22
2022-07-30T05:24:30.533Z,25.22
2022-07-30T05:25:01.908Z,25.22
2022-07-30T05:25:33.234Z,25.22
2022-07-30T05:26:04.585Z,25.22
2022-07-30T05:26:35.953Z,25.23
2022-07-30T05:27:07.270Z,25.23
2022-07-30T05:27:40.511Z,25.24
2022-07-30T05:28:11.992Z,25.23
2022-07-30T05:28:43.518Z,25.24
2022-07-30T05:29:19.786Z,25.23
2022-07-30T05:29:51.614Z,25.23
2022-07-30T05:30:27.353Z,25.23
2022-07-30T05:30:59.201Z,25.24
2022-07-30T05:31:31.687Z,25.27
2022-07-30T05:32:04.393Z,25.26
2022-07-30T05:32:38.718Z,25.22
2022-07-30T05:33:15.639Z,25.24
2022-07-30T05:33:47.418Z,25.23
2022-07-30T05:34:18.749Z,25.25
2022-07-30T05:34:50.266Z,25.25
2022-07-30T05:35:22.736Z,25.23
2022-07-30T05:35:54.211Z,25.25
2022-07-30T05:36:25.686Z,25.25
2022-07-30T05:36:57.052Z,25.25
2022-07-30T05:37:28.395Z,25.24
2022-07-30T05:38:00.118Z,25.25
2022-07-30T05:38:31.442Z,25.23
2022-07-30T05:39:03.004Z,25.23
2022-07-30T05:39:34.309Z,25.26
2022-07-30T05:40:05.916Z,25.26
2022-07-30T05:40:37.234Z,25.25
2022-07-30T05:41:31.655Z,25.27
2022-07-30T05:41:59.895Z,25.24
2022-07-30T05:42:31.241Z,25.22
2022-07-30T05:43:02.849Z,25.25
2022-07-30T05:43:34.158Z,25.25
2022-07-30T05:44:05.611Z,25.25
2022-07-30T05:44:37.060Z,25.23
2022-07-30T05:45:08.691Z,25.24
2022-07-30T05:45:40.088Z,25.23
2022-07-30T05:46:11.451Z,25.25
2022-07-30T05:46:43.463Z,25.23
2022-07-30T05:47:14.857Z,25.24
2022-07-30T05:47:46.342Z,25.23
2022-07-30T05:48:17.845Z,25.26
2022-07-30T05:48:49.269Z,25.25
2022-07-30T05:49:20.624Z,25.27
2022-07-30T05:49:52.139Z,25.26
2022-07-30T05:50:23.469Z,25.27
2022-07-30T05:50:54.794Z,25.28
2022-07-30T05:51:27.255Z,25.31
2022-07-30T05:51:58.579Z,25.30
2022-07-30T05:52:30.604Z,25.31
2022-07-30T05:53:01.969Z,25.33
2022-07-30T05:53:33.304Z,25.28
2022-07-30T05:54:04.792Z,25.27
2022-07-30T05:54:36.226Z,25.30
2022-07-30T05:55:07.994Z,25.29
2022-07-30T05:55:39.322Z,25.27
2022-07-30T05:56:10.692Z,25.31
2022-07-30T05:56:42.010Z,25.31
2022-07-30T05:57:13.337Z,25.32
2022-07-30T05:57:44.685Z,25.28
2022-07-30T05:58:16.139Z,25.29
2022-07-30T05:58:47.499Z,25.29
2022-07-30T05:59:18.861Z,25.29
2022-07-30T05:59:50.171Z,25.29
2022-07-30T06:00:21.486Z,25.27
2022-07-30T06:00:52.863Z,25.27
2022-07-30T06:01:24.220Z,25.28
2022-07-30T06:01:55.643Z,25.28
2022-07-30T06:02:27.035Z,25.27
2022-07-30T06:02:58.393Z,25.26
2022-07-30T06:03:29.785Z,25.26
2022-07-30T06:04:01.149Z,25.26
2022-07-30T06:04:32.635Z,25.25
2022-07-30T06:05:04.194Z,25.25
2022-07-30T06:05:35.592Z,25.28
2022-07-30T06:06:07.152Z,25.27
2022-07-30T06:06:38.529Z,25.31
2022-07-30T06:07:09.866Z,25.33
2022-07-30T06:07:41.237Z,25.31
2022-07-30T06:08:12.567Z,25.29
2022-07-30T06:08:43.926Z,25.29
2022-07-30T06:09:15.256Z,25.29
2022-07-30T06:09:46.583Z,25.29
2022-07-30T06:10:17.920Z,25.30
2022-07-30T06:10:49.294Z,25.29
2022-07-30T06:11:20.626Z,25.28
2022-07-30T06:11:51.948Z,25.28
2022-07-30T06:12:23.541Z,25.32
2022-07-30T06:12:54.903Z,25.29
2022-07-30T06:13:26.232Z,25.29
2022-07-30T06:13:57.553Z,25.28
2022-07-30T06:14:28.893Z,25.28
2022-07-30T06:15:00.233Z,25.29
2022-07-30T06:15:31.586Z,25.29
2022-07-30T06:16:03.029Z,25.29
2022-07-30T06:16:34.415Z,25.30
2022-07-30T06:17:05.757Z,25.29
2022-07-30T06:17:51.016Z,25.30
2022-07-30T06:18:30.897Z,25.29
2022-07-30T06:19:02.218Z,25.28
2022-07-30T06:19:33.583Z,25.29
2022-07-30T06:20:05.239Z,25.28
2022-07-30T06:20:36.607Z,25.27
2022-07-30T06:21:07.963Z,25.28
2022-07-30T06:22:05.691Z,25.29
2022-07-30T06:22:30.644Z,25.27
2022-07-30T06:23:02.032Z,25.27
2022-07-30T06:23:33.406Z,25.30
2022-07-30T06:24:04.815Z,25.28
2022-07-30T06:24:36.133Z,25.28
2022-07-30T06:25:07.720Z,25.28
2022-07-30T06:25:40.465Z,25.29
2022-07-30T06:26:11.832Z,25.29
2022-07-30T06:26:43.164Z,25.28
2022-07-30T06:27:14.515Z,25.29
2022-07-30T06:27:45.869Z,25.29
2022-07-30T06:28:36.618Z,25.28
2022-07-30T06:29:08.839Z,25.28
2022-07-30T06:29:40.438Z,25.30
2022-07-30T06:30:11.816Z,25.30
2022-07-30T06:30:43.267Z,25.32
2022-07-30T06:31:14.969Z,25.30
2022-07-30T06:31:46.334Z,25.30
2022-07-30T06:32:17.666Z,25.34
2022-07-30T06:32:49.187Z,25.32
2022-07-30T06:33:20.622Z,25.35
2022-07-30T06:33:51.974Z,25.35
2022-07-30T06:34:23.335Z,25.35
2022-07-30T06:35:02.526Z,25.35
2022-07-30T06:35:35.841Z,25.35
2022-07-30T06:36:07.231Z,25.35
2022-07-30T06:36:38.564Z,25.35
2022-07-30T06:37:09.984Z,25.36
2022-07-30T06:38:06.315Z,25.35
2022-07-30T06:38:32.984Z,25.34
2022-07-30T06:39:04.281Z,25.35
2022-07-30T06:39:56.754Z,25.35
2022-07-30T06:40:27.114Z,25.35
2022-07-30T06:41:02.872Z,25.36
2022-07-30T06:41:35.871Z,25.35
2022-07-30T06:42:07.250Z,25.33
2022-07-30T06:42:38.558Z,25.33
2022-07-30T06:43:09.856Z,25.34
2022-07-30T06:43:41.228Z,25.34
2022-07-30T06:44:12.545Z,25.33
2022-07-30T06:44:43.918Z,25.35
2022-07-30T06:45:15.287Z,25.32
2022-07-30T06:45:46.870Z,25.32
2022-07-30T06:46:18.260Z,25.32
2022-07-30T06:46:49.601Z,25.34
2022-07-30T06:47:21.171Z,25.33
2022-07-30T06:47:52.669Z,25.35
2022-07-30T06:48:23.996Z,25.35
2022-07-30T06:48:55.447Z,25.35
2022-07-30T06:49:27.121Z,25.36
2022-07-30T06:49:58.562Z,25.36
2022-07-30T06:50:29.911Z,25.38
2022-07-30T06:51:01.266Z,25.36
2022-07-30T06:51:32.589Z,25.36
2022-07-30T06:52:04.263Z,25.34
2022-07-30T06:52:35.615Z,25.35
2022-07-30T06:53:07.031Z,25.34
2022-07-30T06:53:42.676Z,25.35
2022-07-30T06:54:14.269Z,25.34
2022-07-30T06:54:45.670Z,25.34
2022-07-30T06:55:17.015Z,25.32
2022-07-30T06:55:48.341Z,25.35
2022-07-30T06:56:19.694Z,25.38
2022-07-30T06:56:51.021Z,25.39
2022-07-30T06:57:22.503Z,25.36
2022-07-30T06:57:53.878Z,25.34
2022-07-30T06:58:25.764Z,25.33
2022-07-30T06:58:57.191Z,25.32